Time,TemperatureF,DewpointF,PressureIn,WindDirection,WindDirectionDegrees,WindSpeedMPH,WindSpeedGustMPH,Humidity,HourlyPrecipIn,Conditions,Clouds,dailyrainin,SoftwareType,DateUTC
2013-01-26 00:00:00,53.2,51.8,30.20,West,267,0.0,2.0,95,0.00,,,0.01,meteohub,2013-01-26 05:00:00,
2013-01-26 00:01:00,53.2,51.8,30.20,West,267,0.0,2.0,95,0.00,,,0.01,meteohub,2013-01-26 05:01:00,
2013-01-26 00:02:00,53.2,51.8,30.20,West,267,0.0,2.0,95,0.00,,,0.01,meteohub,2013-01-26 05:02:00,
2013-01-26 00:07:00,53.4,52.0,30.20,West,267,1.0,1.0,95,0.00,,,0.00,meteohub,2013-01-26 05:07:00,
2013-01-26 00:12:00,53.4,52.0,30.21,West,267,1.0,1.0,95,0.00,,,0.00,meteohub,2013-01-26 05:12:00,
2013-01-26 00:17:00,53.8,52.3,30.20,West,267,1.0,1.0,95,0.00,,,0.00,meteohub,2013-01-26 05:17:00,
2013-01-26 00:22:00,54.1,52.7,30.20,West,267,2.0,2.0,95,0.00,,,0.00,meteohub,2013-01-26 05:22:00,
2013-01-26 00:27:00,54.3,52.9,30.20,West,267,1.0,3.0,95,0.00,,,0.00,meteohub,2013-01-26 05:27:00,
2013-01-26 00:32:00,54.3,52.9,30.20,West,267,2.0,3.0,95,0.00,,,0.00,meteohub,2013-01-26 05:32:00,
2013-01-26 00:37:00,54.5,53.1,30.20,West,267,0.0,3.0,95,0.00,,,0.00,meteohub,2013-01-26 05:37:00,
2013-01-26 00:42:00,54.5,53.1,30.20,West,267,0.0,2.0,95,0.00,,,0.00,meteohub,2013-01-26 05:42:00,
2013-01-26 00:47:00,54.5,53.1,30.21,West,267,0.0,2.0,95,0.00,,,0.00,meteohub,2013-01-26 05:47:00,
2013-01-26 00:53:00,54.5,53.1,30.21,West,267,1.0,2.0,95,0.00,,,0.00,meteohub,2013-01-26 05:53:00,
2013-01-26 00:58:00,54.7,53.2,30.21,West,267,0.0,2.0,95,0.00,,,0.00,meteohub,2013-01-26 05:58:00,
2013-01-26 01:03:00,54.3,52.9,30.21,West,267,1.0,2.0,95,0.00,,,0.00,meteohub,2013-01-26 06:03:00,
2013-01-26 01:08:00,54.7,53.2,30.21,West,267,1.0,2.0,95,0.00,,,0.00,meteohub,2013-01-26 06:08:00,
2013-01-26 01:13:00,54.9,53.4,30.21,West,267,2.0,3.0,95,0.00,,,0.00,meteohub,2013-01-26 06:13:00,
2013-01-26 01:18:00,55.0,53.6,30.21,West,267,2.0,3.0,95,0.00,,,0.00,meteohub,2013-01-26 06:18:00,
2013-01-26 01:23:00,55.2,53.8,30.21,West,267,2.0,4.0,95,0.00,,,0.00,meteohub,2013-01-26 06:23:00,
2013-01-26 01:28:00,55.6,54.1,30.21,West,267,1.0,4.0,95,0.00,,,0.00,meteohub,2013-01-26 06:28:00,
2013-01-26 01:33:00,55.8,54.7,30.21,West,267,2.0,4.0,96,0.00,,,0.00,meteohub,2013-01-26 06:33:00,
2013-01-26 01:38:00,56.1,54.7,30.21,West,267,1.0,4.0,95,0.00,,,0.00,meteohub,2013-01-26 06:38:00,
2013-01-26 01:43:00,56.1,54.7,30.20,West,267,2.0,4.0,95,0.00,,,0.00,meteohub,2013-01-26 06:43:00,
2013-01-26 01:48:00,56.3,54.9,30.20,West,267,2.0,4.0,95,0.00,,,0.00,meteohub,2013-01-26 06:48:00,
2013-01-26 01:53:00,56.7,55.6,30.20,West,267,2.0,4.0,96,0.00,,,0.00,meteohub,2013-01-26 06:53:00,
2013-01-26 01:58:00,56.5,55.0,30.20,West,267,1.0,4.0,95,0.00,,,0.00,meteohub,2013-01-26 06:58:00,
2013-01-26 02:03:00,56.5,55.0,30.20,West,267,2.0,4.0,95,0.00,,,0.00,meteohub,2013-01-26 07:03:00,
2013-01-26 02:08:00,56.7,55.2,30.19,West,267,3.0,4.0,95,0.01,,,0.01,meteohub,2013-01-26 07:08:00,
2013-01-26 02:13:00,56.8,55.4,30.19,West,267,2.0,4.0,95,0.01,,,0.01,meteohub,2013-01-26 07:13:00,
2013-01-26 02:19:00,56.8,55.4,30.19,West,267,1.0,4.0,95,0.01,,,0.01,meteohub,2013-01-26 07:19:00,
2013-01-26 02:24:00,56.8,55.4,30.19,West,267,1.0,4.0,95,0.01,,,0.01,meteohub,2013-01-26 07:24:00,
2013-01-26 02:29:00,56.8,55.4,30.19,West,267,1.0,3.0,95,0.01,,,0.01,meteohub,2013-01-26 07:29:00,
2013-01-26 02:34:00,56.8,55.4,30.19,West,267,1.0,3.0,95,0.01,,,0.01,meteohub,2013-01-26 07:34:00,
2013-01-26 02:39:00,56.8,55.4,30.19,West,267,1.0,3.0,95,0.01,,,0.01,meteohub,2013-01-26 07:39:00,
2013-01-26 02:44:00,56.8,55.4,30.19,West,267,0.0,3.0,95,0.01,,,0.01,meteohub,2013-01-26 07:44:00,
2013-01-26 02:49:00,56.7,55.0,30.19,West,267,1.0,3.0,94,0.01,,,0.01,meteohub,2013-01-26 07:49:00,
2013-01-26 02:54:00,56.5,54.9,30.19,West,267,0.0,3.0,94,0.01,,,0.01,meteohub,2013-01-26 07:54:00,
2013-01-26 02:59:00,56.5,54.9,30.18,West,267,1.0,3.0,94,0.01,,,0.01,meteohub,2013-01-26 07:59:00,
2013-01-26 03:04:00,56.3,54.7,30.18,West,267,0.0,2.0,94,0.01,,,0.01,meteohub,2013-01-26 08:04:00,
2013-01-26 03:09:00,55.9,54.3,30.18,West,267,0.0,2.0,94,0.00,,,0.01,meteohub,2013-01-26 08:09:00,
2013-01-26 03:14:00,55.9,54.3,30.18,West,267,1.0,1.0,94,0.00,,,0.01,meteohub,2013-01-26 08:14:00,
2013-01-26 03:19:00,55.8,54.1,30.18,West,267,0.0,1.0,94,0.00,,,0.01,meteohub,2013-01-26 08:19:00,
2013-01-26 03:24:00,55.4,53.8,30.18,West,267,1.0,1.0,94,0.00,,,0.01,meteohub,2013-01-26 08:24:00,
2013-01-26 03:29:00,55.0,53.4,30.18,West,267,0.0,2.0,94,0.00,,,0.01,meteohub,2013-01-26 08:29:00,
2013-01-26 03:34:00,54.9,53.2,30.17,West,267,1.0,2.0,94,0.00,,,0.01,meteohub,2013-01-26 08:34:00,
2013-01-26 03:39:00,54.9,53.4,30.17,West,267,0.0,2.0,95,0.00,,,0.01,meteohub,2013-01-26 08:39:00,
2013-01-26 03:44:00,54.7,53.1,30.17,West,267,1.0,2.0,94,0.00,,,0.01,meteohub,2013-01-26 08:44:00,
2013-01-26 03:50:00,54.9,53.4,30.18,West,267,1.0,2.0,95,0.00,,,0.01,meteohub,2013-01-26 08:50:00,
2013-01-26 03:55:00,54.7,53.2,30.18,West,267,1.0,2.0,95,0.00,,,0.01,meteohub,2013-01-26 08:55:00,
2013-01-26 04:00:00,54.7,53.2,30.18,West,267,0.0,2.0,95,0.00,,,0.01,meteohub,2013-01-26 09:00:00,
2013-01-26 04:05:00,54.9,53.4,30.18,West,267,2.0,2.0,95,0.00,,,0.01,meteohub,2013-01-26 09:05:00,
2013-01-26 04:10:00,54.9,53.4,30.17,West,267,1.0,2.0,95,0.00,,,0.01,meteohub,2013-01-26 09:10:00,
2013-01-26 04:15:00,54.9,53.4,30.18,West,267,1.0,2.0,95,0.00,,,0.01,meteohub,2013-01-26 09:15:00,
2013-01-26 04:20:00,54.9,53.4,30.17,West,267,0.0,2.0,95,0.00,,,0.01,meteohub,2013-01-26 09:20:00,
2013-01-26 04:25:00,54.9,53.4,30.17,West,267,0.0,2.0,95,0.00,,,0.01,meteohub,2013-01-26 09:25:00,
2013-01-26 04:30:00,54.9,53.4,30.17,West,267,1.0,2.0,95,0.00,,,0.01,meteohub,2013-01-26 09:30:00,
2013-01-26 04:35:00,54.7,53.2,30.17,West,267,1.0,2.0,95,0.00,,,0.01,meteohub,2013-01-26 09:35:00,
2013-01-26 04:40:00,54.7,53.2,30.18,West,267,0.0,2.0,95,0.00,,,0.01,meteohub,2013-01-26 09:40:00,
2013-01-26 04:45:00,54.5,53.1,30.18,West,267,1.0,2.0,95,0.00,,,0.01,meteohub,2013-01-26 09:45:00,
2013-01-26 04:50:00,54.5,53.1,30.18,West,267,1.0,2.0,95,0.00,,,0.01,meteohub,2013-01-26 09:50:00,
2013-01-26 04:55:00,54.3,52.7,30.18,West,267,0.0,2.0,94,0.00,,,0.01,meteohub,2013-01-26 09:55:00,
2013-01-26 05:00:00,54.5,53.1,30.18,West,267,1.0,2.0,95,0.00,,,0.01,meteohub,2013-01-26 10:00:00,
2013-01-26 05:05:00,54.3,52.9,30.18,West,267,1.0,2.0,95,0.00,,,0.01,meteohub,2013-01-26 10:05:00,
2013-01-26 05:11:00,54.3,52.9,30.18,West,267,0.0,2.0,95,0.00,,,0.01,meteohub,2013-01-26 10:11:00,
2013-01-26 05:16:00,54.7,53.2,30.18,West,267,0.0,2.0,95,0.00,,,0.01,meteohub,2013-01-26 10:16:00,
2013-01-26 05:21:00,54.7,53.2,30.18,West,267,0.0,2.0,95,0.00,,,0.01,meteohub,2013-01-26 10:21:00,
2013-01-26 05:26:00,54.7,53.2,30.18,West,267,0.0,1.0,95,0.00,,,0.01,meteohub,2013-01-26 10:26:00,
2013-01-26 05:31:00,54.7,53.2,30.18,West,267,0.0,1.0,95,0.00,,,0.01,meteohub,2013-01-26 10:31:00,
2013-01-26 05:36:00,54.7,53.2,30.18,West,267,0.0,1.0,95,0.00,,,0.01,meteohub,2013-01-26 10:36:00,
2013-01-26 05:41:00,54.7,53.2,30.18,West,267,0.0,1.0,95,0.00,,,0.01,meteohub,2013-01-26 10:41:00,
2013-01-26 05:46:00,54.3,52.9,30.18,West,267,0.0,1.0,95,0.00,,,0.01,meteohub,2013-01-26 10:46:00,
2013-01-26 05:51:00,54.1,52.5,30.18,West,267,0.0,1.0,94,0.00,,,0.01,meteohub,2013-01-26 10:51:00,
2013-01-26 05:56:00,54.0,52.5,30.18,West,267,0.0,1.0,95,0.00,,,0.01,meteohub,2013-01-26 10:56:00,
2013-01-26 06:01:00,53.8,52.3,30.19,West,267,0.0,1.0,95,0.00,,,0.01,meteohub,2013-01-26 11:01:00,
2013-01-26 06:06:00,53.8,52.3,30.19,West,267,0.0,0.0,95,0.00,,,0.01,meteohub,2013-01-26 11:06:00,
2013-01-26 06:11:00,53.4,52.0,30.19,West,267,0.0,0.0,95,0.00,,,0.01,meteohub,2013-01-26 11:11:00,
2013-01-26 06:16:00,53.2,51.8,30.19,West,267,0.0,0.0,95,0.00,,,0.01,meteohub,2013-01-26 11:16:00,
2013-01-26 06:21:00,53.2,51.8,30.19,West,267,0.0,0.0,95,0.00,,,0.01,meteohub,2013-01-26 11:21:00,
2013-01-26 06:26:00,53.2,51.8,30.19,West,267,0.0,0.0,95,0.00,,,0.01,meteohub,2013-01-26 11:26:00,
2013-01-26 06:32:00,53.2,51.8,30.19,West,267,0.0,0.0,95,0.00,,,0.01,meteohub,2013-01-26 11:32:00,
2013-01-26 06:37:00,53.2,51.8,30.19,West,267,0.0,0.0,95,0.00,,,0.01,meteohub,2013-01-26 11:37:00,
2013-01-26 06:42:00,52.9,51.4,30.20,West,267,0.0,0.0,95,0.00,,,0.01,meteohub,2013-01-26 11:42:00,
2013-01-26 06:47:00,52.5,51.1,30.20,West,267,0.0,0.0,95,0.00,,,0.01,meteohub,2013-01-26 11:47:00,
2013-01-26 06:52:00,52.2,50.7,30.20,West,267,0.0,0.0,95,0.00,,,0.01,meteohub,2013-01-26 11:52:00,
2013-01-26 06:57:00,51.8,50.4,30.20,West,267,0.0,1.0,95,0.00,,,0.01,meteohub,2013-01-26 11:57:00,
2013-01-26 07:02:00,51.8,50.4,30.20,West,267,0.0,1.0,95,0.00,,,0.01,meteohub,2013-01-26 12:02:00,
2013-01-26 07:07:00,51.6,50.2,30.20,West,267,0.0,1.0,95,0.00,,,0.01,meteohub,2013-01-26 12:07:00,
2013-01-26 07:12:00,51.6,50.2,30.21,West,267,0.0,1.0,95,0.00,,,0.01,meteohub,2013-01-26 12:12:00,
2013-01-26 07:17:00,51.6,50.2,30.21,West,267,0.0,1.0,95,0.00,,,0.01,meteohub,2013-01-26 12:17:00,
2013-01-26 07:22:00,51.6,50.2,30.21,West,267,0.0,1.0,95,0.00,,,0.01,meteohub,2013-01-26 12:22:00,
2013-01-26 07:27:00,51.6,50.2,30.21,West,267,0.0,1.0,95,0.00,,,0.01,meteohub,2013-01-26 12:27:00,
2013-01-26 07:32:00,51.4,50.0,30.21,West,267,0.0,0.0,95,0.00,,,0.01,meteohub,2013-01-26 12:32:00,
2013-01-26 07:37:00,51.4,50.0,30.22,West,267,0.0,0.0,95,0.00,,,0.01,meteohub,2013-01-26 12:37:00,
2013-01-26 07:42:00,51.3,49.8,30.22,West,267,0.0,0.0,95,0.00,,,0.01,meteohub,2013-01-26 12:42:00,
2013-01-26 07:47:00,51.1,49.6,30.22,West,267,0.0,0.0,95,0.00,,,0.01,meteohub,2013-01-26 12:47:00,
2013-01-26 07:52:00,50.9,49.5,30.22,West,267,0.0,0.0,95,0.00,,,0.01,meteohub,2013-01-26 12:52:00,
2013-01-26 07:58:00,50.9,49.5,30.22,West,267,0.0,0.0,95,0.00,,,0.01,meteohub,2013-01-26 12:58:00,
2013-01-26 08:03:00,51.1,50.0,30.22,West,267,0.0,0.0,96,0.00,,,0.01,meteohub,2013-01-26 13:03:00,
2013-01-26 08:08:00,51.6,50.5,30.22,West,267,0.0,0.0,96,0.00,,,0.01,meteohub,2013-01-26 13:08:00,
2013-01-26 08:13:00,52.2,51.1,30.22,West,267,0.0,0.0,96,0.00,,,0.01,meteohub,2013-01-26 13:13:00,
2013-01-26 08:18:00,52.9,51.8,30.23,West,267,0.0,1.0,96,0.00,,,0.01,meteohub,2013-01-26 13:18:00,
2013-01-26 08:23:00,53.6,52.5,30.23,West,267,0.0,1.0,96,0.00,,,0.01,meteohub,2013-01-26 13:23:00,
2013-01-26 08:28:00,54.3,53.2,30.23,West,267,0.0,1.0,96,0.00,,,0.01,meteohub,2013-01-26 13:28:00,
2013-01-26 08:33:00,54.9,53.8,30.23,West,267,0.0,1.0,96,0.00,,,0.01,meteohub,2013-01-26 13:33:00,
2013-01-26 08:38:00,55.2,54.1,30.23,West,267,0.0,1.0,96,0.00,,,0.01,meteohub,2013-01-26 13:38:00,
2013-01-26 08:43:00,55.8,54.7,30.23,West,267,0.0,1.0,96,0.00,,,0.01,meteohub,2013-01-26 13:43:00,
2013-01-26 08:48:00,56.5,55.4,30.23,West,267,0.0,1.0,96,0.00,,,0.01,meteohub,2013-01-26 13:48:00,
2013-01-26 08:53:00,57.4,56.3,30.23,West,267,1.0,1.0,96,0.00,,,0.01,meteohub,2013-01-26 13:53:00,
2013-01-26 08:59:00,58.5,57.4,30.23,West,267,2.0,2.0,96,0.00,,,0.01,meteohub,2013-01-26 13:59:00,
2013-01-26 09:04:00,59.5,58.5,30.23,West,267,0.0,2.0,96,0.00,,,0.01,meteohub,2013-01-26 14:04:00,
2013-01-26 09:09:00,60.4,59.0,30.24,West,267,0.0,2.0,95,0.00,,,0.01,meteohub,2013-01-26 14:09:00,
2013-01-26 09:14:00,61.3,59.0,30.24,West,267,1.0,2.0,92,0.00,,,0.01,meteohub,2013-01-26 14:14:00,
2013-01-26 09:19:00,62.4,59.4,30.24,West,267,0.0,2.0,90,0.00,,,0.01,meteohub,2013-01-26 14:19:00,
2013-01-26 09:24:00,63.7,59.7,30.24,West,267,1.0,3.0,87,0.00,,,0.01,meteohub,2013-01-26 14:24:00,
2013-01-26 09:29:00,64.6,59.7,30.24,West,267,1.0,3.0,84,0.00,,,0.01,meteohub,2013-01-26 14:29:00,
2013-01-26 09:34:00,65.5,59.2,30.24,West,267,1.0,2.0,80,0.00,,,0.01,meteohub,2013-01-26 14:34:00,
2013-01-26 09:39:00,65.8,59.2,30.25,West,267,1.0,2.0,79,0.00,,,0.01,meteohub,2013-01-26 14:39:00,
2013-01-26 09:44:00,66.6,59.2,30.25,West,267,0.0,3.0,77,0.00,,,0.01,meteohub,2013-01-26 14:44:00,
2013-01-26 09:49:00,67.6,58.6,30.25,West,267,0.0,3.0,73,0.00,,,0.01,meteohub,2013-01-26 14:49:00,
2013-01-26 09:54:00,68.4,59.4,30.25,West,267,1.0,3.0,73,0.00,,,0.01,meteohub,2013-01-26 14:54:00,
2013-01-26 09:59:00,69.3,59.5,30.25,West,267,1.0,2.0,71,0.00,,,0.01,meteohub,2013-01-26 14:59:00,
2013-01-26 10:04:00,70.0,59.7,30.25,West,267,0.0,2.0,70,0.00,,,0.01,meteohub,2013-01-26 15:04:00,
2013-01-26 10:09:00,70.3,59.4,30.25,West,267,1.0,2.0,68,0.00,,,0.01,meteohub,2013-01-26 15:09:00,
2013-01-26 10:14:00,70.9,59.0,30.25,West,267,1.0,3.0,66,0.00,,,0.01,meteohub,2013-01-26 15:14:00,
2013-01-26 10:19:00,70.5,59.0,30.25,West,267,0.0,3.0,67,0.00,,,0.01,meteohub,2013-01-26 15:19:00,
2013-01-26 10:25:00,71.1,58.6,30.25,West,267,0.0,3.0,65,0.00,,,0.01,meteohub,2013-01-26 15:25:00,
2013-01-26 10:30:00,71.6,58.3,30.25,West,267,0.0,2.0,63,0.00,,,0.01,meteohub,2013-01-26 15:30:00,
2013-01-26 10:35:00,71.4,58.1,30.25,West,267,2.0,4.0,63,0.00,,,0.01,meteohub,2013-01-26 15:35:00,
2013-01-26 10:40:00,72.0,58.3,30.25,West,267,2.0,4.0,62,0.00,,,0.01,meteohub,2013-01-26 15:40:00,
2013-01-26 10:45:00,72.1,57.9,30.25,West,267,3.0,4.0,61,0.00,,,0.01,meteohub,2013-01-26 15:45:00,
2013-01-26 10:50:00,72.1,57.9,30.25,West,267,2.0,5.0,61,0.00,,,0.01,meteohub,2013-01-26 15:50:00,
2013-01-26 10:55:00,72.7,58.5,30.25,West,267,3.0,5.0,61,0.00,,,0.01,meteohub,2013-01-26 15:55:00,
2013-01-26 11:00:00,72.7,58.5,30.25,West,267,2.0,5.0,61,0.00,,,0.01,meteohub,2013-01-26 16:00:00,
2013-01-26 11:05:00,72.5,57.7,30.25,West,267,4.0,5.0,60,0.00,,,0.01,meteohub,2013-01-26 16:05:00,
2013-01-26 11:10:00,72.1,57.9,30.25,West,267,1.0,8.0,61,0.00,,,0.01,meteohub,2013-01-26 16:10:00,
2013-01-26 11:15:00,72.0,57.7,30.25,NW,325,2.0,8.0,61,0.00,,,0.01,meteohub,2013-01-26 16:15:00,
2013-01-26 11:20:00,72.1,57.9,30.25,NW,323,2.0,8.0,61,0.00,,,0.01,meteohub,2013-01-26 16:20:00,
2013-01-26 11:25:00,72.7,57.9,30.25,NW,321,3.0,7.0,60,0.00,,,0.01,meteohub,2013-01-26 16:25:00,
2013-01-26 11:30:00,72.9,58.1,30.24,NNW,347,2.0,7.0,60,0.00,,,0.01,meteohub,2013-01-26 16:30:00,
2013-01-26 11:35:00,72.7,57.9,30.24,NNW,327,5.0,8.0,60,0.00,,,0.01,meteohub,2013-01-26 16:35:00,
2013-01-26 11:41:00,72.3,57.7,30.24,NW,321,1.0,8.0,60,0.00,,,0.01,meteohub,2013-01-26 16:41:00,
2013-01-26 11:46:00,72.3,57.7,30.24,NW,305,4.0,8.0,60,0.00,,,0.01,meteohub,2013-01-26 16:46:00,
2013-01-26 11:51:00,72.5,57.7,30.24,NW,309,2.0,9.0,60,0.00,,,0.01,meteohub,2013-01-26 16:51:00,
2013-01-26 11:56:00,72.5,57.7,30.24,NW,307,4.0,9.0,60,0.00,,,0.01,meteohub,2013-01-26 16:56:00,
2013-01-26 12:01:00,72.7,57.9,30.23,WNW,302,0.0,9.0,60,0.00,,,0.01,meteohub,2013-01-26 17:01:00,
2013-01-26 12:06:00,72.9,57.7,30.23,NW,313,3.0,8.0,59,0.00,,,0.01,meteohub,2013-01-26 17:06:00,
2013-01-26 12:11:00,73.0,57.9,30.23,NW,311,1.0,8.0,59,0.00,,,0.01,meteohub,2013-01-26 17:11:00,
2013-01-26 12:16:00,73.2,58.1,30.22,NW,316,4.0,7.0,59,0.00,,,0.01,meteohub,2013-01-26 17:16:00,
2013-01-26 12:21:00,73.0,57.9,30.23,NW,321,4.0,8.0,59,0.00,,,0.01,meteohub,2013-01-26 17:21:00,
2013-01-26 12:26:00,73.0,57.9,30.22,WNW,296,4.0,8.0,59,0.00,,,0.01,meteohub,2013-01-26 17:26:00,
2013-01-26 12:31:00,73.2,58.1,30.22,WNW,287,7.0,8.0,59,0.00,,,0.01,meteohub,2013-01-26 17:31:00,
2013-01-26 12:36:00,73.0,57.9,30.22,NW,319,5.0,11.0,59,0.00,,,0.01,meteohub,2013-01-26 17:36:00,
2013-01-26 12:42:00,72.9,58.1,30.22,NNW,347,5.0,11.0,60,0.00,,,0.01,meteohub,2013-01-26 17:42:00,
2013-01-26 12:47:00,72.9,58.1,30.22,NW,311,4.0,11.0,60,0.00,,,0.01,meteohub,2013-01-26 17:47:00,
2013-01-26 12:52:00,73.0,57.9,30.21,WNW,302,4.0,9.0,59,0.00,,,0.01,meteohub,2013-01-26 17:52:00,
2013-01-26 12:57:00,72.7,57.9,30.21,NW,312,2.0,9.0,60,0.00,,,0.01,meteohub,2013-01-26 17:57:00,
2013-01-26 13:02:00,72.9,58.1,30.20,WNW,290,7.0,10.0,60,0.00,,,0.01,meteohub,2013-01-26 18:02:00,
2013-01-26 13:07:00,73.0,57.9,30.20,West,277,7.0,10.0,59,0.00,,,0.01,meteohub,2013-01-26 18:07:00,
2013-01-26 13:12:00,73.0,58.3,30.20,NW,311,4.0,10.0,60,0.00,,,0.01,meteohub,2013-01-26 18:12:00,
2013-01-26 13:17:00,73.2,58.5,30.19,West,279,3.0,9.0,60,0.00,,,0.01,meteohub,2013-01-26 18:17:00,
2013-01-26 13:22:00,73.8,58.5,30.19,NW,313,4.0,9.0,59,0.00,,,0.01,meteohub,2013-01-26 18:22:00,
2013-01-26 13:27:00,73.6,58.3,30.19,NW,307,2.0,9.0,59,0.00,,,0.01,meteohub,2013-01-26 18:27:00,
2013-01-26 13:32:00,73.6,58.8,30.19,NW,312,4.0,9.0,60,0.00,,,0.01,meteohub,2013-01-26 18:32:00,
2013-01-26 13:37:00,73.6,58.8,30.18,WNW,285,6.0,9.0,60,0.00,,,0.01,meteohub,2013-01-26 18:37:00,
2013-01-26 13:42:00,73.2,58.5,30.18,WNW,290,3.0,10.0,60,0.00,,,0.01,meteohub,2013-01-26 18:42:00,
2013-01-26 13:47:00,73.2,58.5,30.18,WNW,290,6.0,10.0,60,0.00,,,0.01,meteohub,2013-01-26 18:47:00,
2013-01-26 13:52:00,73.4,58.6,30.17,NNW,337,3.0,10.0,60,0.00,,,0.01,meteohub,2013-01-26 18:52:00,
2013-01-26 13:57:00,73.2,58.5,30.17,WNW,298,4.0,9.0,60,0.00,,,0.01,meteohub,2013-01-26 18:57:00,
2013-01-26 14:02:00,73.4,58.6,30.17,East,80,5.0,8.0,60,0.00,,,0.01,meteohub,2013-01-26 19:02:00,
2013-01-26 14:07:00,73.8,59.0,30.17,NW,314,7.0,9.0,60,0.00,,,0.01,meteohub,2013-01-26 19:07:00,
2013-01-26 14:12:00,73.9,58.6,30.17,NW,306,6.0,9.0,59,0.00,,,0.01,meteohub,2013-01-26 19:12:00,
2013-01-26 14:17:00,73.6,58.3,30.17,WNW,298,6.0,10.0,59,0.00,,,0.01,meteohub,2013-01-26 19:17:00,
2013-01-26 14:22:00,73.0,58.8,30.17,NW,314,4.0,10.0,61,0.00,,,0.01,meteohub,2013-01-26 19:22:00,
2013-01-26 14:27:00,73.0,58.8,30.17,NW,319,4.0,10.0,61,0.00,,,0.01,meteohub,2013-01-26 19:27:00,
2013-01-26 14:32:00,73.0,58.8,30.17,WNW,299,5.0,8.0,61,0.00,,,0.01,meteohub,2013-01-26 19:32:00,
2013-01-26 14:37:00,73.0,58.8,30.17,WNW,290,1.0,9.0,61,0.00,,,0.01,meteohub,2013-01-26 19:37:00,
2013-01-26 14:42:00,73.0,58.8,30.16,WNW,300,2.0,10.0,61,0.00,,,0.01,meteohub,2013-01-26 19:42:00,
2013-01-26 14:47:00,73.2,59.0,30.16,NW,313,4.0,10.0,61,0.00,,,0.01,meteohub,2013-01-26 19:47:00,
2013-01-26 14:52:00,73.2,59.0,30.16,WNW,297,2.0,9.0,61,0.00,,,0.01,meteohub,2013-01-26 19:52:00,
2013-01-26 14:57:00,73.0,58.8,30.16,WNW,290,7.0,9.0,61,0.00,,,0.01,meteohub,2013-01-26 19:57:00,
2013-01-26 15:02:00,73.0,58.8,30.16,WNW,300,5.0,9.0,61,0.00,,,0.01,meteohub,2013-01-26 20:02:00,
2013-01-26 15:07:00,73.0,59.2,30.16,North,349,2.0,9.0,62,0.00,,,0.01,meteohub,2013-01-26 20:07:00,
2013-01-26 15:12:00,72.7,57.9,30.15,NW,311,4.0,9.0,60,0.00,,,0.01,meteohub,2013-01-26 20:12:00,
2013-01-26 15:17:00,72.3,58.6,30.15,NNW,328,5.0,9.0,62,0.00,,,0.01,meteohub,2013-01-26 20:17:00,
2013-01-26 15:22:00,72.3,59.0,30.15,NW,313,5.0,9.0,63,0.00,,,0.01,meteohub,2013-01-26 20:22:00,
2013-01-26 15:27:00,72.0,58.6,30.15,WNW,298,5.0,9.0,63,0.00,,,0.01,meteohub,2013-01-26 20:27:00,
2013-01-26 15:32:00,72.0,59.2,30.15,NNW,328,4.0,9.0,64,0.00,,,0.01,meteohub,2013-01-26 20:32:00,
2013-01-26 15:37:00,71.8,59.0,30.15,NW,310,4.0,9.0,64,0.00,,,0.01,meteohub,2013-01-26 20:37:00,
2013-01-26 15:42:00,71.4,58.6,30.15,WNW,292,8.0,10.0,64,0.00,,,0.01,meteohub,2013-01-26 20:42:00,
2013-01-26 15:47:00,71.4,58.6,30.15,NW,323,7.0,10.0,64,0.00,,,0.01,meteohub,2013-01-26 20:47:00,
2013-01-26 15:52:00,71.2,58.5,30.15,NW,306,4.0,9.0,64,0.00,,,0.01,meteohub,2013-01-26 20:52:00,
2013-01-26 15:57:00,71.2,58.5,30.15,NNW,334,5.0,9.0,64,0.00,,,0.01,meteohub,2013-01-26 20:57:00,
2013-01-26 16:02:00,71.4,59.0,30.15,NW,310,4.0,9.0,65,0.00,,,0.01,meteohub,2013-01-26 21:02:00,
2013-01-26 16:07:00,71.4,59.0,30.15,West,275,6.0,9.0,65,0.00,,,0.01,meteohub,2013-01-26 21:07:00,
2013-01-26 16:12:00,71.2,58.8,30.15,NW,326,8.0,9.0,65,0.00,,,0.01,meteohub,2013-01-26 21:12:00,
2013-01-26 16:17:00,70.5,58.6,30.15,NW,311,3.0,10.0,66,0.00,,,0.01,meteohub,2013-01-26 21:17:00,
2013-01-26 16:22:00,70.3,58.8,30.16,NW,315,6.0,11.0,67,0.00,,,0.01,meteohub,2013-01-26 21:22:00,
2013-01-26 16:27:00,70.0,59.0,30.16,NW,323,8.0,11.0,68,0.00,,,0.01,meteohub,2013-01-26 21:27:00,
2013-01-26 16:32:00,69.8,58.8,30.16,NW,313,3.0,9.0,68,0.00,,,0.01,meteohub,2013-01-26 21:32:00,
2013-01-26 16:37:00,69.6,58.6,30.16,NW,314,2.0,9.0,68,0.00,,,0.01,meteohub,2013-01-26 21:37:00,
2013-01-26 16:42:00,69.4,58.8,30.16,WNW,301,4.0,9.0,69,0.00,,,0.01,meteohub,2013-01-26 21:42:00,
2013-01-26 16:47:00,69.3,58.6,30.16,NW,318,3.0,9.0,69,0.00,,,0.01,meteohub,2013-01-26 21:47:00,
2013-01-26 16:52:00,68.7,58.5,30.16,NW,315,3.0,8.0,70,0.00,,,0.01,meteohub,2013-01-26 21:52:00,
2013-01-26 16:57:00,68.5,58.8,30.16,NW,311,5.0,8.0,71,0.00,,,0.01,meteohub,2013-01-26 21:57:00,
2013-01-26 17:02:00,68.2,58.5,30.16,NNW,334,5.0,8.0,71,0.00,,,0.01,meteohub,2013-01-26 22:02:00,
2013-01-26 17:07:00,68.0,58.6,30.17,NW,323,6.0,8.0,72,0.00,,,0.01,meteohub,2013-01-26 22:07:00,
2013-01-26 17:12:00,67.6,58.6,30.17,NW,322,3.0,8.0,73,0.00,,,0.01,meteohub,2013-01-26 22:12:00,
2013-01-26 17:17:00,67.3,58.3,30.16,NW,306,6.0,8.0,73,0.00,,,0.01,meteohub,2013-01-26 22:17:00,
2013-01-26 17:22:00,67.1,58.5,30.16,NNW,329,3.0,11.0,74,0.00,,,0.01,meteohub,2013-01-26 22:22:00,
2013-01-26 17:27:00,66.9,58.8,30.17,NW,309,3.0,11.0,75,0.00,,,0.01,meteohub,2013-01-26 22:27:00,
2013-01-26 17:32:00,66.7,58.6,30.17,NW,325,2.0,11.0,75,0.00,,,0.01,meteohub,2013-01-26 22:32:00,
2013-01-26 17:37:00,66.7,58.6,30.17,NW,323,4.0,8.0,75,0.00,,,0.01,meteohub,2013-01-26 22:37:00,
2013-01-26 17:42:00,66.6,58.8,30.17,NW,323,3.0,7.0,76,0.00,,,0.01,meteohub,2013-01-26 22:42:00,
2013-01-26 17:47:00,66.4,58.6,30.17,NW,322,2.0,5.0,76,0.00,,,0.01,meteohub,2013-01-26 22:47:00,
2013-01-26 17:52:00,66.0,58.6,30.17,NW,322,2.0,6.0,77,0.00,,,0.01,meteohub,2013-01-26 22:52:00,
2013-01-26 17:57:00,65.8,58.8,30.17,NW,322,1.0,6.0,78,0.00,,,0.01,meteohub,2013-01-26 22:57:00,
2013-01-26 18:02:00,65.7,58.6,30.17,NW,322,0.0,5.0,78,0.00,,,0.01,meteohub,2013-01-26 23:02:00,
2013-01-26 18:07:00,65.1,58.5,30.17,NW,322,2.0,5.0,79,0.00,,,0.01,meteohub,2013-01-26 23:07:00,
2013-01-26 18:12:00,64.9,58.3,30.17,NW,322,0.0,3.0,79,0.00,,,0.01,meteohub,2013-01-26 23:12:00,
2013-01-26 18:17:00,64.8,58.5,30.17,NW,322,2.0,3.0,80,0.00,,,0.01,meteohub,2013-01-26 23:17:00,
2013-01-26 18:22:00,64.6,58.3,30.17,NW,322,0.0,3.0,80,0.00,,,0.01,meteohub,2013-01-26 23:22:00,
2013-01-26 18:27:00,64.2,58.3,30.18,NW,322,0.0,3.0,81,0.00,,,0.01,meteohub,2013-01-26 23:27:00,
2013-01-26 18:32:00,63.9,57.9,30.18,NW,322,0.0,3.0,81,0.00,,,0.01,meteohub,2013-01-26 23:32:00,
2013-01-26 18:37:00,63.7,58.1,30.18,NW,322,0.0,2.0,82,0.00,,,0.01,meteohub,2013-01-26 23:37:00,
2013-01-26 18:42:00,63.3,58.1,30.18,NW,322,0.0,2.0,83,0.00,,,0.01,meteohub,2013-01-26 23:42:00,
2013-01-26 18:47:00,63.1,58.3,30.18,NW,322,0.0,2.0,84,0.00,,,0.01,meteohub,2013-01-26 23:47:00,
2013-01-26 18:52:00,63.0,58.1,30.18,NW,322,0.0,1.0,84,0.00,,,0.01,meteohub,2013-01-26 23:52:00,
2013-01-26 18:57:00,62.6,58.1,30.17,NW,322,0.0,1.0,85,0.00,,,0.01,meteohub,2013-01-26 23:57:00,
2013-01-26 19:02:00,62.4,58.1,30.18,NW,322,0.0,1.0,86,0.00,,,0.01,meteohub,2013-01-27 00:02:00,
2013-01-26 19:07:00,62.1,57.7,30.18,NW,322,0.0,1.0,86,0.00,,,0.01,meteohub,2013-01-27 00:07:00,
2013-01-26 19:12:00,61.9,57.6,30.18,NW,322,2.0,2.0,86,0.00,,,0.01,meteohub,2013-01-27 00:12:00,
2013-01-26 19:17:00,61.9,58.3,30.18,NW,322,3.0,3.0,88,0.00,,,0.01,meteohub,2013-01-27 00:17:00,
2013-01-26 19:22:00,61.9,58.3,30.18,NW,322,2.0,4.0,88,0.00,,,0.01,meteohub,2013-01-27 00:22:00,
2013-01-26 19:27:00,61.9,58.3,30.18,NW,322,1.0,4.0,88,0.00,,,0.01,meteohub,2013-01-27 00:27:00,
2013-01-26 19:32:00,61.5,58.3,30.18,NW,322,3.0,4.0,89,0.00,,,0.01,meteohub,2013-01-27 00:32:00,
2013-01-26 19:37:00,61.5,58.3,30.18,NW,322,2.0,4.0,89,0.00,,,0.01,meteohub,2013-01-27 00:37:00,
2013-01-26 19:42:00,61.5,58.6,30.18,NW,322,0.0,3.0,90,0.00,,,0.01,meteohub,2013-01-27 00:42:00,
2013-01-26 19:47:00,61.3,58.5,30.18,NW,322,0.0,3.0,90,0.00,,,0.01,meteohub,2013-01-27 00:47:00,
2013-01-26 19:52:00,61.2,58.3,30.18,NW,322,0.0,3.0,90,0.00,,,0.01,meteohub,2013-01-27 00:52:00,
2013-01-26 19:57:00,61.0,58.1,30.18,NW,322,0.0,2.0,90,0.00,,,0.01,meteohub,2013-01-27 00:57:00,
2013-01-26 20:02:00,61.0,58.3,30.19,NW,322,0.0,2.0,91,0.00,,,0.01,meteohub,2013-01-27 01:02:00,
2013-01-26 20:07:00,61.0,58.3,30.19,NW,322,0.0,2.0,91,0.00,,,0.01,meteohub,2013-01-27 01:07:00,
2013-01-26 20:12:00,60.6,57.9,30.19,NW,322,0.0,1.0,91,0.00,,,0.01,meteohub,2013-01-27 01:12:00,
2013-01-26 20:17:00,60.6,57.9,30.19,NW,322,0.0,1.0,91,0.00,,,0.01,meteohub,2013-01-27 01:17:00,
2013-01-26 20:22:00,60.4,57.7,30.19,NW,322,0.0,1.0,91,0.00,,,0.01,meteohub,2013-01-27 01:22:00,
2013-01-26 20:27:00,60.4,58.1,30.19,NW,322,0.0,1.0,92,0.00,,,0.01,meteohub,2013-01-27 01:27:00,
2013-01-26 20:32:00,60.3,57.9,30.19,NW,322,0.0,1.0,92,0.00,,,0.01,meteohub,2013-01-27 01:32:00,
2013-01-26 20:37:00,60.3,57.9,30.19,NW,322,0.0,1.0,92,0.00,,,0.01,meteohub,2013-01-27 01:37:00,
2013-01-26 20:42:00,60.1,57.7,30.19,NW,322,0.0,1.0,92,0.00,,,0.01,meteohub,2013-01-27 01:42:00,
2013-01-26 20:47:00,59.9,57.6,30.19,NW,322,0.0,1.0,92,0.00,,,0.01,meteohub,2013-01-27 01:47:00,
2013-01-26 20:52:00,59.7,57.7,30.19,NW,322,0.0,1.0,93,0.00,,,0.01,meteohub,2013-01-27 01:52:00,
2013-01-26 20:57:00,59.5,57.6,30.19,NW,322,0.0,1.0,93,0.00,,,0.01,meteohub,2013-01-27 01:57:00,
2013-01-26 21:02:00,59.5,57.6,30.19,NW,322,0.0,1.0,93,0.00,,,0.01,meteohub,2013-01-27 02:02:00,
2013-01-26 21:07:00,59.4,57.4,30.19,NW,322,0.0,1.0,93,0.00,,,0.01,meteohub,2013-01-27 02:07:00,
2013-01-26 21:12:00,59.4,57.6,30.19,NW,322,0.0,1.0,94,0.00,,,0.01,meteohub,2013-01-27 02:12:00,
2013-01-26 21:17:00,59.4,57.6,30.19,NW,322,0.0,1.0,94,0.00,,,0.01,meteohub,2013-01-27 02:17:00,
2013-01-26 21:22:00,59.2,57.4,30.19,NW,322,0.0,1.0,94,0.00,,,0.01,meteohub,2013-01-27 02:22:00,
2013-01-26 21:27:00,59.0,57.2,30.19,NW,322,0.0,1.0,94,0.00,,,0.01,meteohub,2013-01-27 02:27:00,
2013-01-26 21:32:00,59.0,57.2,30.19,NW,322,0.0,1.0,94,0.00,,,0.01,meteohub,2013-01-27 02:32:00,
2013-01-26 21:37:00,58.8,57.0,30.19,NW,322,0.0,1.0,94,0.00,,,0.01,meteohub,2013-01-27 02:37:00,
2013-01-26 21:42:00,58.8,57.0,30.19,NW,322,0.0,1.0,94,0.00,,,0.01,meteohub,2013-01-27 02:42:00,
2013-01-26 21:47:00,58.8,57.0,30.19,NW,322,0.0,0.0,94,0.00,,,0.01,meteohub,2013-01-27 02:47:00,
2013-01-26 21:52:00,58.8,57.4,30.19,NW,322,0.0,0.0,95,0.00,,,0.01,meteohub,2013-01-27 02:52:00,
2013-01-26 21:57:00,58.8,57.4,30.20,NW,322,0.0,0.0,95,0.00,,,0.01,meteohub,2013-01-27 02:57:00,
2013-01-26 22:02:00,58.8,57.4,30.20,NW,322,0.0,0.0,95,0.00,,,0.01,meteohub,2013-01-27 03:02:00,
2013-01-26 22:07:00,58.8,57.0,30.20,NW,322,0.0,0.0,94,0.00,,,0.01,meteohub,2013-01-27 03:07:00,
2013-01-26 22:12:00,58.6,56.8,30.20,NW,322,0.0,0.0,94,0.00,,,0.01,meteohub,2013-01-27 03:12:00,
2013-01-26 22:17:00,58.6,57.2,30.20,NW,322,0.0,0.0,95,0.00,,,0.01,meteohub,2013-01-27 03:17:00,
2013-01-26 22:22:00,58.6,57.2,30.20,NW,322,0.0,0.0,95,0.00,,,0.01,meteohub,2013-01-27 03:22:00,
2013-01-26 22:27:00,58.6,57.2,30.20,NW,322,0.0,0.0,95,0.00,,,0.01,meteohub,2013-01-27 03:27:00,
2013-01-26 22:32:00,58.6,57.2,30.21,NW,322,0.0,0.0,95,0.00,,,0.01,meteohub,2013-01-27 03:32:00,
2013-01-26 22:37:00,58.5,57.0,30.21,NW,322,0.0,0.0,95,0.00,,,0.01,meteohub,2013-01-27 03:37:00,
2013-01-26 22:42:00,58.5,57.0,30.21,NW,322,0.0,0.0,95,0.00,,,0.01,meteohub,2013-01-27 03:42:00,
2013-01-26 22:47:00,58.3,56.8,30.21,NW,322,0.0,1.0,95,0.00,,,0.01,meteohub,2013-01-27 03:47:00,
2013-01-26 22:52:00,58.3,56.8,30.21,NW,322,0.0,1.0,95,0.00,,,0.01,meteohub,2013-01-27 03:52:00,
2013-01-26 22:57:00,58.1,56.7,30.21,NW,322,0.0,1.0,95,0.00,,,0.01,meteohub,2013-01-27 03:57:00,
2013-01-26 23:02:00,57.9,56.5,30.21,NW,322,0.0,0.0,95,0.01,,,0.02,meteohub,2013-01-27 04:02:00,
2013-01-26 23:07:00,57.9,56.5,30.21,NW,322,0.0,0.0,95,0.01,,,0.02,meteohub,2013-01-27 04:07:00,
2013-01-26 23:12:00,57.9,56.5,30.21,NW,322,0.0,0.0,95,0.01,,,0.02,meteohub,2013-01-27 04:12:00,
2013-01-26 23:17:00,57.7,56.3,30.21,NW,322,0.0,0.0,95,0.01,,,0.02,meteohub,2013-01-27 04:17:00,
2013-01-26 23:22:00,57.7,56.3,30.21,NW,322,0.0,0.0,95,0.01,,,0.02,meteohub,2013-01-27 04:22:00,
2013-01-26 23:27:00,57.6,56.1,30.21,NW,322,0.0,0.0,95,0.01,,,0.02,meteohub,2013-01-27 04:27:00,
2013-01-26 23:32:00,57.6,56.1,30.21,NW,322,0.0,0.0,95,0.01,,,0.02,meteohub,2013-01-27 04:32:00,
2013-01-26 23:37:00,57.6,56.1,30.21,NW,322,0.0,0.0,95,0.01,,,0.02,meteohub,2013-01-27 04:37:00,
2013-01-26 23:42:00,57.4,55.9,30.20,NW,322,0.0,0.0,95,0.01,,,0.02,meteohub,2013-01-27 04:42:00,
2013-01-26 23:47:00,57.4,55.9,30.20,NW,322,0.0,0.0,95,0.01,,,0.02,meteohub,2013-01-27 04:47:00,
2013-01-26 23:52:00,57.2,55.8,30.21,NW,322,0.0,0.0,95,0.01,,,0.02,meteohub,2013-01-27 04:52:00,
2013-01-26 23:57:00,57.0,55.6,30.20,NW,322,0.0,0.0,95,0.00,,,0.02,meteohub,2013-01-27 04:57:00,